sensor_id;sensor_type;location;lat;lon;timestamp;P1;durP1;ratioP1;P2;durP2;ratioP2
55815;SDS011;41744;52.404;16.942;2022-07-03T00:03:25;10.23;;;4.60;;
55815;SDS011;41744;52.404;16.942;2022-07-03T00:05:51;7.72;;;4.28;;
55815;SDS011;41744;52.404;16.942;2022-07-03T00:08:17;8.50;;;4.60;;
55815;SDS011;41744;52.404;16.942;2022-07-03T00:13:46;7.07;;;4.80;;
55815;SDS011;41744;52.404;16.942;2022-07-03T00:16:12;10.50;;;5.30;;
55815;SDS011;41744;52.404;16.942;2022-07-03T00:18:38;9.85;;;4.95;;
55815;SDS011;41744;52.404;16.942;2022-07-03T00:21:05;13.98;;;4.95;;
55815;SDS011;41744;52.404;16.942;2022-07-03T00:24:16;6.43;;;4.43;;
55815;SDS011;41744;52.404;16.942;2022-07-03T00:26:20;7.93;;;4.60;;
55815;SDS011;41744;52.404;16.942;2022-07-03T00:28:47;5.97;;;4.55;;
55815;SDS011;41744;52.404;16.942;2022-07-03T00:31:13;10.23;;;5.40;;
55815;SDS011;41744;52.404;16.942;2022-07-03T00:33:39;10.32;;;5.47;;
55815;SDS011;41744;52.404;16.942;2022-07-03T00:36:06;12.55;;;5.75;;
55815;SDS011;41744;52.404;16.942;2022-07-03T00:38:33;7.05;;;5.32;;
55815;SDS011;41744;52.404;16.942;2022-07-03T00:44:02;10.32;;;5.45;;
55815;SDS011;41744;52.404;16.942;2022-07-03T00:46:29;11.57;;;5.20;;
55815;SDS011;41744;52.404;16.942;2022-07-03T00:51:58;8.05;;;5.45;;
55815;SDS011;41744;52.404;16.942;2022-07-03T00:54:28;8.30;;;5.18;;
55815;SDS011;41744;52.404;16.942;2022-07-03T00:56:57;8.07;;;4.95;;
55815;SDS011;41744;52.404;16.942;2022-07-03T00:59:25;8.48;;;5.30;;
55815;SDS011;41744;52.404;16.942;2022-07-03T01:01:53;9.45;;;5.63;;
55815;SDS011;41744;52.404;16.942;2022-07-03T01:06:52;9.40;;;5.20;;
55815;SDS011;41744;52.404;16.942;2022-07-03T01:12:47;8.45;;;5.50;;
55815;SDS011;41744;52.404;16.942;2022-07-03T01:15:12;9.98;;;5.82;;
55815;SDS011;41744;52.404;16.942;2022-07-03T01:17:44;10.55;;;5.50;;
55815;SDS011;41744;52.404;16.942;2022-07-03T01:20:13;9.98;;;5.57;;
55815;SDS011;41744;52.404;16.942;2022-07-03T01:22:43;9.25;;;5.70;;
55815;SDS011;41744;52.404;16.942;2022-07-03T01:25:17;8.27;;;5.88;;
55815;SDS011;41744;52.404;16.942;2022-07-03T01:27:52;13.93;;;5.90;;
55815;SDS011;41744;52.404;16.942;2022-07-03T01:30:29;9.00;;;5.63;;
55815;SDS011;41744;52.404;16.942;2022-07-03T01:32:59;7.85;;;5.30;;
55815;SDS011;41744;52.404;16.942;2022-07-03T01:35:37;8.95;;;5.40;;
55815;SDS011;41744;52.404;16.942;2022-07-03T01:38:06;9.07;;;6.18;;
55815;SDS011;41744;52.404;16.942;2022-07-03T01:40:33;9.63;;;5.70;;
55815;SDS011;41744;52.404;16.942;2022-07-03T01:43:01;14.73;;;6.00;;
55815;SDS011;41744;52.404;16.942;2022-07-03T01:45:27;10.90;;;6.13;;
55815;SDS011;41744;52.404;16.942;2022-07-03T01:47:54;12.00;;;5.57;;
55815;SDS011;41744;52.404;16.942;2022-07-03T01:53:26;9.93;;;5.88;;
55815;SDS011;41744;52.404;16.942;2022-07-03T01:55:56;10.85;;;6.30;;
55815;SDS011;41744;52.404;16.942;2022-07-03T01:58:22;9.50;;;6.68;;
55815;SDS011;41744;52.404;16.942;2022-07-03T02:03:18;11.55;;;6.53;;
55815;SDS011;41744;52.404;16.942;2022-07-03T02:05:47;9.90;;;6.30;;
55815;SDS011;41744;52.404;16.942;2022-07-03T02:08:17;12.20;;;6.10;;
55815;SDS011;41744;52.404;16.942;2022-07-03T02:13:52;11.35;;;6.28;;
55815;SDS011;41744;52.404;16.942;2022-07-03T02:16:21;8.60;;;5.95;;
55815;SDS011;41744;52.404;16.942;2022-07-03T02:18:58;10.40;;;6.03;;
55815;SDS011;41744;52.404;16.942;2022-07-03T02:21:28;7.97;;;6.00;;
55815;SDS011;41744;52.404;16.942;2022-07-03T02:24:07;9.07;;;5.93;;
55815;SDS011;41744;52.404;16.942;2022-07-03T02:26:39;8.43;;;6.13;;
55815;SDS011;41744;52.404;16.942;2022-07-03T02:29:07;11.70;;;6.35;;
55815;SDS011;41744;52.404;16.942;2022-07-03T02:31:38;9.02;;;6.32;;
55815;SDS011;41744;52.404;16.942;2022-07-03T02:34:06;8.43;;;6.13;;
55815;SDS011;41744;52.404;16.942;2022-07-03T02:36:33;8.52;;;6.15;;
55815;SDS011;41744;52.404;16.942;2022-07-03T02:42:04;8.90;;;6.00;;
55815;SDS011;41744;52.404;16.942;2022-07-03T02:44:35;11.40;;;6.28;;
55815;SDS011;41744;52.404;16.942;2022-07-03T02:58:02;8.50;;;6.10;;
55815;SDS011;41744;52.404;16.942;2022-07-03T03:00:33;9.27;;;5.75;;
55815;SDS011;41744;52.404;16.942;2022-07-03T03:03:00;10.20;;;6.00;;
55815;SDS011;41744;52.404;16.942;2022-07-03T03:05:29;9.40;;;5.88;;
55815;SDS011;41744;52.404;16.942;2022-07-03T03:08:05;11.10;;;6.28;;
55815;SDS011;41744;52.404;16.942;2022-07-03T03:13:37;9.77;;;6.45;;
55815;SDS011;41744;52.404;16.942;2022-07-03T03:16:08;11.60;;;6.65;;
55815;SDS011;41744;52.404;16.942;2022-07-03T03:18:36;9.90;;;6.07;;
55815;SDS011;41744;52.404;16.942;2022-07-03T03:24:06;9.40;;;6.50;;
55815;SDS011;41744;52.404;16.942;2022-07-03T03:26:32;13.00;;;6.50;;
55815;SDS011;41744;52.404;16.942;2022-07-03T03:32:02;10.30;;;6.72;;
55815;SDS011;41744;52.404;16.942;2022-07-03T03:34:29;8.10;;;5.93;;
55815;SDS011;41744;52.404;16.942;2022-07-03T03:36:57;9.32;;;6.43;;
55815;SDS011;41744;52.404;16.942;2022-07-03T03:39:23;9.50;;;6.28;;
55815;SDS011;41744;52.404;16.942;2022-07-03T03:41:49;10.07;;;6.25;;
55815;SDS011;41744;52.404;16.942;2022-07-03T03:44:15;9.77;;;6.00;;
55815;SDS011;41744;52.404;16.942;2022-07-03T03:46:41;10.07;;;6.53;;
55815;SDS011;41744;52.404;16.942;2022-07-03T03:49:07;9.02;;;5.68;;
55815;SDS011;41744;52.404;16.942;2022-07-03T03:51:33;10.85;;;6.22;;
55815;SDS011;41744;52.404;16.942;2022-07-03T03:53:59;10.15;;;6.20;;
55815;SDS011;41744;52.404;16.942;2022-07-03T03:56:28;10.27;;;5.82;;
55815;SDS011;41744;52.404;16.942;2022-07-03T04:01:57;10.23;;;6.15;;
55815;SDS011;41744;52.404;16.942;2022-07-03T04:04:23;10.18;;;5.68;;
55815;SDS011;41744;52.404;16.942;2022-07-03T04:06:49;9.77;;;6.07;;
55815;SDS011;41744;52.404;16.942;2022-07-03T04:09:15;8.25;;;6.05;;
55815;SDS011;41744;52.404;16.942;2022-07-03T04:11:41;10.32;;;5.85;;
55815;SDS011;41744;52.404;16.942;2022-07-03T04:14:07;11.10;;;6.63;;
55815;SDS011;41744;52.404;16.942;2022-07-03T04:16:33;9.00;;;5.70;;
55815;SDS011;41744;52.404;16.942;2022-07-03T04:19:00;9.68;;;6.38;;
55815;SDS011;41744;52.404;16.942;2022-07-03T04:21:26;11.05;;;6.28;;
55815;SDS011;41744;52.404;16.942;2022-07-03T04:23:52;8.90;;;6.03;;
55815;SDS011;41744;52.404;16.942;2022-07-03T04:26:18;9.25;;;6.00;;
55815;SDS011;41744;52.404;16.942;2022-07-03T04:28:44;13.20;;;6.82;;
55815;SDS011;41744;52.404;16.942;2022-07-03T04:31:10;9.85;;;6.07;;
55815;SDS011;41744;52.404;16.942;2022-07-03T04:33:36;12.27;;;6.13;;
55815;SDS011;41744;52.404;16.942;2022-07-03T04:36:02;8.75;;;6.47;;
55815;SDS011;41744;52.404;16.942;2022-07-03T04:38:30;9.63;;;5.82;;
55815;SDS011;41744;52.404;16.942;2022-07-03T04:43:59;11.07;;;6.18;;
55815;SDS011;41744;52.404;16.942;2022-07-03T04:46:25;8.50;;;5.43;;
55815;SDS011;41744;52.404;16.942;2022-07-03T04:48:51;12.45;;;6.28;;
55815;SDS011;41744;52.404;16.942;2022-07-03T04:51:17;10.35;;;6.55;;
55815;SDS011;41744;52.404;16.942;2022-07-03T04:53:43;9.70;;;5.55;;
55815;SDS011;41744;52.404;16.942;2022-07-03T04:56:10;9.00;;;5.47;;
55815;SDS011;41744;52.404;16.942;2022-07-03T04:58:36;10.88;;;5.40;;
55815;SDS011;41744;52.404;16.942;2022-07-03T05:01:02;6.85;;;4.65;;
55815;SDS011;41744;52.404;16.942;2022-07-03T05:03:28;11.60;;;5.22;;
55815;SDS011;41744;52.404;16.942;2022-07-03T05:05:54;8.18;;;5.25;;
55815;SDS011;41744;52.404;16.942;2022-07-03T05:08:20;7.75;;;5.20;;
55815;SDS011;41744;52.404;16.942;2022-07-03T05:10:46;10.30;;;5.03;;
55815;SDS011;41744;52.404;16.942;2022-07-03T05:13:12;7.43;;;4.50;;
55815;SDS011;41744;52.404;16.942;2022-07-03T05:15:38;6.47;;;5.00;;
55815;SDS011;41744;52.404;16.942;2022-07-03T05:18:04;5.80;;;4.50;;
55815;SDS011;41744;52.404;16.942;2022-07-03T05:23:34;5.25;;;4.03;;
55815;SDS011;41744;52.404;16.942;2022-07-03T05:26:00;7.53;;;3.88;;
55815;SDS011;41744;52.404;16.942;2022-07-03T05:28:26;8.13;;;4.00;;
55815;SDS011;41744;52.404;16.942;2022-07-03T05:30:52;6.68;;;4.18;;
55815;SDS011;41744;52.404;16.942;2022-07-03T05:33:18;9.20;;;4.03;;
55815;SDS011;41744;52.404;16.942;2022-07-03T05:35:44;9.88;;;3.60;;
55815;SDS011;41744;52.404;16.942;2022-07-03T05:38:10;5.55;;;3.30;;
55815;SDS011;41744;52.404;16.942;2022-07-03T05:40:36;4.65;;;3.42;;
55815;SDS011;41744;52.404;16.942;2022-07-03T05:43:01;5.05;;;3.20;;
55815;SDS011;41744;52.404;16.942;2022-07-03T05:45:28;3.83;;;2.50;;
55815;SDS011;41744;52.404;16.942;2022-07-03T05:47:53;5.85;;;2.50;;
55815;SDS011;41744;52.404;16.942;2022-07-03T05:53:23;4.00;;;2.60;;
55815;SDS011;41744;52.404;16.942;2022-07-03T05:55:49;5.65;;;2.45;;
55815;SDS011;41744;52.404;16.942;2022-07-03T05:58:15;5.65;;;2.30;;
55815;SDS011;41744;52.404;16.942;2022-07-03T06:00:41;4.97;;;2.10;;
55815;SDS011;41744;52.404;16.942;2022-07-03T06:03:07;5.10;;;2.10;;
55815;SDS011;41744;52.404;16.942;2022-07-03T06:05:33;3.60;;;1.90;;
55815;SDS011;41744;52.404;16.942;2022-07-03T06:07:59;2.35;;;1.52;;
55815;SDS011;41744;52.404;16.942;2022-07-03T06:10:26;3.17;;;1.65;;
55815;SDS011;41744;52.404;16.942;2022-07-03T06:12:52;3.35;;;1.40;;
55815;SDS011;41744;52.404;16.942;2022-07-03T06:15:18;3.97;;;1.60;;
55815;SDS011;41744;52.404;16.942;2022-07-03T06:17:44;4.63;;;1.52;;
55815;SDS011;41744;52.404;16.942;2022-07-03T06:23:14;2.47;;;1.60;;
55815;SDS011;41744;52.404;16.942;2022-07-03T06:25:40;3.72;;;1.73;;
55815;SDS011;41744;52.404;16.942;2022-07-03T06:28:06;7.45;;;1.70;;
55815;SDS011;41744;52.404;16.942;2022-07-03T06:33:35;3.03;;;1.42;;
55815;SDS011;41744;52.404;16.942;2022-07-03T06:36:02;3.30;;;1.48;;
55815;SDS011;41744;52.404;16.942;2022-07-03T06:38:28;2.42;;;1.63;;
55815;SDS011;41744;52.404;16.942;2022-07-03T06:40:54;3.55;;;1.35;;
55815;SDS011;41744;52.404;16.942;2022-07-03T06:43:20;2.05;;;1.13;;
55815;SDS011;41744;52.404;16.942;2022-07-03T06:45:46;3.13;;;1.30;;
55815;SDS011;41744;52.404;16.942;2022-07-03T06:48:12;2.65;;;1.10;;
55815;SDS011;41744;52.404;16.942;2022-07-03T06:53:41;2.95;;;1.60;;
55815;SDS011;41744;52.404;16.942;2022-07-03T06:56:07;3.55;;;1.50;;
55815;SDS011;41744;52.404;16.942;2022-07-03T06:58:33;2.65;;;1.50;;
55815;SDS011;41744;52.404;16.942;2022-07-03T07:00:59;3.03;;;1.50;;
55815;SDS011;41744;52.404;16.942;2022-07-03T07:03:25;2.35;;;1.25;;
55815;SDS011;41744;52.404;16.942;2022-07-03T07:05:51;2.75;;;1.25;;
55815;SDS011;41744;52.404;16.942;2022-07-03T07:08:17;4.03;;;1.35;;
55815;SDS011;41744;52.404;16.942;2022-07-03T07:10:43;5.65;;;1.50;;
55815;SDS011;41744;52.404;16.942;2022-07-03T07:13:09;3.40;;;1.67;;
55815;SDS011;41744;52.404;16.942;2022-07-03T07:15:35;2.55;;;1.33;;
55815;SDS011;41744;52.404;16.942;2022-07-03T07:18:01;2.75;;;1.30;;
55815;SDS011;41744;52.404;16.942;2022-07-03T07:23:30;4.10;;;1.45;;
55815;SDS011;41744;52.404;16.942;2022-07-03T07:25:56;2.58;;;1.30;;
55815;SDS011;41744;52.404;16.942;2022-07-03T07:28:22;2.80;;;1.40;;
55815;SDS011;41744;52.404;16.942;2022-07-03T07:33:52;2.42;;;1.20;;
55815;SDS011;41744;52.404;16.942;2022-07-03T07:36:18;3.20;;;1.40;;
55815;SDS011;41744;52.404;16.942;2022-07-03T07:38:44;4.20;;;1.40;;
55815;SDS011;41744;52.404;16.942;2022-07-03T07:41:10;2.63;;;1.30;;
55815;SDS011;41744;52.404;16.942;2022-07-03T07:43:36;2.15;;;1.50;;
55815;SDS011;41744;52.404;16.942;2022-07-03T07:46:02;2.22;;;1.20;;
55815;SDS011;41744;52.404;16.942;2022-07-03T07:48:28;2.90;;;1.15;;
55815;SDS011;41744;52.404;16.942;2022-07-03T07:53:58;1.42;;;1.02;;
55815;SDS011;41744;52.404;16.942;2022-07-03T07:56:24;3.17;;;1.20;;
55815;SDS011;41744;52.404;16.942;2022-07-03T08:01:54;2.15;;;1.25;;
55815;SDS011;41744;52.404;16.942;2022-07-03T08:04:39;2.25;;;1.30;;
55815;SDS011;41744;52.404;16.942;2022-07-03T08:07:23;4.00;;;1.10;;
55815;SDS011;41744;52.404;16.942;2022-07-03T08:09:49;5.50;;;1.50;;
55815;SDS011;41744;52.404;16.942;2022-07-03T08:12:18;1.77;;;1.33;;
55815;SDS011;41744;52.404;16.942;2022-07-03T08:14:44;2.97;;;1.13;;
55815;SDS011;41744;52.404;16.942;2022-07-03T08:17:10;3.15;;;1.17;;
55815;SDS011;41744;52.404;16.942;2022-07-03T08:19:36;2.97;;;1.17;;
55815;SDS011;41744;52.404;16.942;2022-07-03T08:22:02;3.65;;;1.55;;
55815;SDS011;41744;52.404;16.942;2022-07-03T08:24:28;1.40;;;1.23;;
55815;SDS011;41744;52.404;16.942;2022-07-03T08:26:54;3.45;;;1.35;;
55815;SDS011;41744;52.404;16.942;2022-07-03T08:32:23;2.78;;;1.55;;
55815;SDS011;41744;52.404;16.942;2022-07-03T08:34:49;2.60;;;1.60;;
55815;SDS011;41744;52.404;16.942;2022-07-03T08:37:15;1.95;;;1.20;;
55815;SDS011;41744;52.404;16.942;2022-07-03T08:39:41;2.67;;;1.80;;
55815;SDS011;41744;52.404;16.942;2022-07-03T08:42:07;2.13;;;1.40;;
55815;SDS011;41744;52.404;16.942;2022-07-03T08:44:37;2.67;;;1.50;;
55815;SDS011;41744;52.404;16.942;2022-07-03T08:47:03;2.47;;;1.50;;
55815;SDS011;41744;52.404;16.942;2022-07-03T08:52:36;3.15;;;1.48;;
55815;SDS011;41744;52.404;16.942;2022-07-03T08:55:03;2.33;;;1.50;;
55815;SDS011;41744;52.404;16.942;2022-07-03T08:57:30;4.50;;;2.00;;
55815;SDS011;41744;52.404;16.942;2022-07-03T09:03:01;2.25;;;1.60;;
55815;SDS011;41744;52.404;16.942;2022-07-03T09:05:29;5.38;;;1.70;;
55815;SDS011;41744;52.404;16.942;2022-07-03T09:07:55;3.13;;;1.60;;
55815;SDS011;41744;52.404;16.942;2022-07-03T09:13:26;17.13;;;10.35;;
55815;SDS011;41744;52.404;16.942;2022-07-03T09:15:52;3.88;;;1.92;;
55815;SDS011;41744;52.404;16.942;2022-07-03T09:18:18;3.33;;;1.88;;
55815;SDS011;41744;52.404;16.942;2022-07-03T09:24:05;3.30;;;1.73;;
55815;SDS011;41744;52.404;16.942;2022-07-03T09:26:31;3.60;;;1.80;;
55815;SDS011;41744;52.404;16.942;2022-07-03T09:28:57;2.50;;;1.63;;
55815;SDS011;41744;52.404;16.942;2022-07-03T09:31:24;2.25;;;1.63;;
55815;SDS011;41744;52.404;16.942;2022-07-03T09:33:58;4.38;;;1.60;;
55815;SDS011;41744;52.404;16.942;2022-07-03T09:39:20;2.13;;;1.40;;
55815;SDS011;41744;52.404;16.942;2022-07-03T09:42:05;1.70;;;1.60;;
55815;SDS011;41744;52.404;16.942;2022-07-03T09:44:33;3.83;;;1.90;;
55815;SDS011;41744;52.404;16.942;2022-07-03T09:47:09;3.08;;;1.70;;
55815;SDS011;41744;52.404;16.942;2022-07-03T09:52:33;2.47;;;1.70;;
55815;SDS011;41744;52.404;16.942;2022-07-03T09:55:00;2.20;;;1.98;;
55815;SDS011;41744;52.404;16.942;2022-07-03T09:57:27;2.72;;;1.90;;
55815;SDS011;41744;52.404;16.942;2022-07-03T10:00:08;5.60;;;2.10;;
55815;SDS011;41744;52.404;16.942;2022-07-03T10:02:35;3.67;;;1.63;;
55815;SDS011;41744;52.404;16.942;2022-07-03T10:05:13;4.70;;;1.70;;
55815;SDS011;41744;52.404;16.942;2022-07-03T10:07:58;5.53;;;3.38;;
55815;SDS011;41744;52.404;16.942;2022-07-03T10:10:25;4.55;;;2.05;;
55815;SDS011;41744;52.404;16.942;2022-07-03T10:12:52;7.20;;;1.77;;
55815;SDS011;41744;52.404;16.942;2022-07-03T10:15:19;4.10;;;1.95;;
55815;SDS011;41744;52.404;16.942;2022-07-03T10:17:48;2.35;;;1.77;;
55815;SDS011;41744;52.404;16.942;2022-07-03T10:23:21;2.25;;;1.80;;
55815;SDS011;41744;52.404;16.942;2022-07-03T10:25:48;2.35;;;1.70;;
55815;SDS011;41744;52.404;16.942;2022-07-03T10:28:14;8.88;;;2.00;;
55815;SDS011;41744;52.404;16.942;2022-07-03T10:30:44;4.55;;;1.98;;
55815;SDS011;41744;52.404;16.942;2022-07-03T10:33:10;3.60;;;2.20;;
55815;SDS011;41744;52.404;16.942;2022-07-03T10:35:37;4.55;;;2.30;;
55815;SDS011;41744;52.404;16.942;2022-07-03T10:38:11;3.60;;;2.25;;
55815;SDS011;41744;52.404;16.942;2022-07-03T10:43:48;2.83;;;2.00;;
55815;SDS011;41744;52.404;16.942;2022-07-03T10:46:35;2.20;;;2.00;;
55815;SDS011;41744;52.404;16.942;2022-07-03T10:52:04;4.43;;;2.65;;
55815;SDS011;41744;52.404;16.942;2022-07-03T10:54:35;4.05;;;2.45;;
55815;SDS011;41744;52.404;16.942;2022-07-03T10:57:09;3.38;;;2.50;;
55815;SDS011;41744;52.404;16.942;2022-07-03T11:02:20;2.63;;;2.28;;
55815;SDS011;41744;52.404;16.942;2022-07-03T11:07:26;2.72;;;2.17;;
55815;SDS011;41744;52.404;16.942;2022-07-03T11:15:25;2.65;;;2.40;;
55815;SDS011;41744;52.404;16.942;2022-07-03T11:26:23;3.17;;;2.10;;
55815;SDS011;41744;52.404;16.942;2022-07-03T11:28:50;3.47;;;2.30;;
55815;SDS011;41744;52.404;16.942;2022-07-03T11:31:17;3.35;;;2.30;;
55815;SDS011;41744;52.404;16.942;2022-07-03T11:38:42;3.10;;;2.10;;
55815;SDS011;41744;52.404;16.942;2022-07-03T11:41:11;3.72;;;2.17;;
55815;SDS011;41744;52.404;16.942;2022-07-03T11:43:37;2.20;;;2.03;;
55815;SDS011;41744;52.404;16.942;2022-07-03T11:46:03;3.92;;;2.00;;
55815;SDS011;41744;52.404;16.942;2022-07-03T11:48:30;4.65;;;2.22;;
55815;SDS011;41744;52.404;16.942;2022-07-03T11:54:00;3.20;;;1.92;;
55815;SDS011;41744;52.404;16.942;2022-07-03T11:56:26;4.20;;;2.38;;
55815;SDS011;41744;52.404;16.942;2022-07-03T11:58:54;6.68;;;2.30;;
55815;SDS011;41744;52.404;16.942;2022-07-03T12:03:48;3.05;;;2.30;;
55815;SDS011;41744;52.404;16.942;2022-07-03T12:06:14;4.13;;;2.35;;
55815;SDS011;41744;52.404;16.942;2022-07-03T12:08:41;2.55;;;2.10;;
55815;SDS011;41744;52.404;16.942;2022-07-03T12:14:14;4.65;;;2.58;;
55815;SDS011;41744;52.404;16.942;2022-07-03T12:16:40;3.17;;;2.50;;
55815;SDS011;41744;52.404;16.942;2022-07-03T12:19:06;3.03;;;2.55;;
55815;SDS011;41744;52.404;16.942;2022-07-03T12:21:36;6.50;;;2.55;;
55815;SDS011;41744;52.404;16.942;2022-07-03T12:24:08;5.13;;;2.55;;
55815;SDS011;41744;52.404;16.942;2022-07-03T12:26:35;2.83;;;2.40;;
55815;SDS011;41744;52.404;16.942;2022-07-03T12:29:02;3.50;;;2.47;;
55815;SDS011;41744;52.404;16.942;2022-07-03T12:31:28;3.03;;;2.40;;
55815;SDS011;41744;52.404;16.942;2022-07-03T12:33:55;4.18;;;2.55;;
55815;SDS011;41744;52.404;16.942;2022-07-03T12:36:21;5.15;;;2.22;;
55815;SDS011;41744;52.404;16.942;2022-07-03T12:38:48;2.55;;;2.30;;
55815;SDS011;41744;52.404;16.942;2022-07-03T12:44:17;6.30;;;2.58;;
55815;SDS011;41744;52.404;16.942;2022-07-03T12:46:45;2.95;;;2.65;;
55815;SDS011;41744;52.404;16.942;2022-07-03T12:52:27;3.28;;;2.05;;
55815;SDS011;41744;52.404;16.942;2022-07-03T12:54:53;2.30;;;2.10;;
55815;SDS011;41744;52.404;16.942;2022-07-03T12:57:23;3.45;;;2.10;;
55815;SDS011;41744;52.404;16.942;2022-07-03T13:03:30;2.40;;;2.20;;
55815;SDS011;41744;52.404;16.942;2022-07-03T13:06:11;4.55;;;2.47;;
55815;SDS011;41744;52.404;16.942;2022-07-03T13:08:38;3.83;;;2.45;;
55815;SDS011;41744;52.404;16.942;2022-07-03T13:14:15;2.92;;;2.30;;
55815;SDS011;41744;52.404;16.942;2022-07-03T13:22:12;2.83;;;2.13;;
55815;SDS011;41744;52.404;16.942;2022-07-03T13:24:38;3.30;;;2.40;;
55815;SDS011;41744;52.404;16.942;2022-07-03T13:27:07;5.80;;;2.47;;
55815;SDS011;41744;52.404;16.942;2022-07-03T13:29:40;5.22;;;2.00;;
55815;SDS011;41744;52.404;16.942;2022-07-03T13:32:09;3.15;;;2.17;;
55815;SDS011;41744;52.404;16.942;2022-07-03T13:34:35;2.72;;;2.20;;
55815;SDS011;41744;52.404;16.942;2022-07-03T13:37:01;3.50;;;2.15;;
55815;SDS011;41744;52.404;16.942;2022-07-03T13:39:33;8.63;;;2.22;;
55815;SDS011;41744;52.404;16.942;2022-07-03T13:42:04;2.70;;;2.50;;
55815;SDS011;41744;52.404;16.942;2022-07-03T13:44:35;3.70;;;2.35;;
55815;SDS011;41744;52.404;16.942;2022-07-03T13:47:01;2.90;;;2.42;;
55815;SDS011;41744;52.404;16.942;2022-07-03T13:52:31;5.47;;;2.40;;
55815;SDS011;41744;52.404;16.942;2022-07-03T13:54:57;3.67;;;2.42;;
55815;SDS011;41744;52.404;16.942;2022-07-03T13:57:23;7.15;;;2.70;;
55815;SDS011;41744;52.404;16.942;2022-07-03T13:59:49;6.68;;;2.40;;
55815;SDS011;41744;52.404;16.942;2022-07-03T14:02:18;3.17;;;2.28;;
55815;SDS011;41744;52.404;16.942;2022-07-03T14:04:44;2.83;;;2.47;;
55815;SDS011;41744;52.404;16.942;2022-07-03T14:07:30;2.60;;;2.40;;
55815;SDS011;41744;52.404;16.942;2022-07-03T14:09:56;3.80;;;2.50;;
55815;SDS011;41744;52.404;16.942;2022-07-03T14:12:25;3.22;;;2.70;;
55815;SDS011;41744;52.404;16.942;2022-07-03T14:14:51;2.60;;;2.33;;
55815;SDS011;41744;52.404;16.942;2022-07-03T14:17:21;2.75;;;2.47;;
55815;SDS011;41744;52.404;16.942;2022-07-03T14:22:51;2.65;;;2.40;;
55815;SDS011;41744;52.404;16.942;2022-07-03T14:25:17;3.70;;;2.80;;
55815;SDS011;41744;52.404;16.942;2022-07-03T14:27:46;4.95;;;2.42;;
55815;SDS011;41744;52.404;16.942;2022-07-03T14:33:34;3.58;;;2.70;;
55815;SDS011;41744;52.404;16.942;2022-07-03T14:36:03;3.15;;;2.53;;
55815;SDS011;41744;52.404;16.942;2022-07-03T14:38:34;2.67;;;2.10;;
55815;SDS011;41744;52.404;16.942;2022-07-03T14:44:09;2.90;;;2.60;;
55815;SDS011;41744;52.404;16.942;2022-07-03T14:46:35;3.50;;;2.78;;
55815;SDS011;41744;52.404;16.942;2022-07-03T14:49:03;2.88;;;2.60;;
55815;SDS011;41744;52.404;16.942;2022-07-03T14:51:33;4.75;;;2.40;;
55815;SDS011;41744;52.404;16.942;2022-07-03T14:53:59;3.75;;;2.83;;
55815;SDS011;41744;52.404;16.942;2022-07-03T14:56:25;3.90;;;2.45;;
55815;SDS011;41744;52.404;16.942;2022-07-03T14:58:52;2.60;;;2.40;;
55815;SDS011;41744;52.404;16.942;2022-07-03T15:01:27;3.40;;;2.88;;
55815;SDS011;41744;52.404;16.942;2022-07-03T15:03:59;3.97;;;2.58;;
55815;SDS011;41744;52.404;16.942;2022-07-03T15:06:26;3.22;;;2.45;;
55815;SDS011;41744;52.404;16.942;2022-07-03T15:09:00;3.72;;;2.67;;
55815;SDS011;41744;52.404;16.942;2022-07-03T15:11:32;5.43;;;2.47;;
55815;SDS011;41744;52.404;16.942;2022-07-03T15:14:19;6.85;;;3.15;;
55815;SDS011;41744;52.404;16.942;2022-07-03T15:16:49;4.63;;;2.78;;
55815;SDS011;41744;52.404;16.942;2022-07-03T15:19:16;3.28;;;2.65;;
55815;SDS011;41744;52.404;16.942;2022-07-03T15:21:45;5.65;;;2.72;;
55815;SDS011;41744;52.404;16.942;2022-07-03T15:24:12;5.78;;;2.60;;
55815;SDS011;41744;52.404;16.942;2022-07-03T15:26:38;3.88;;;2.83;;
55815;SDS011;41744;52.404;16.942;2022-07-03T15:32:09;4.50;;;2.90;;
55815;SDS011;41744;52.404;16.942;2022-07-03T15:34:38;3.42;;;2.25;;
55815;SDS011;41744;52.404;16.942;2022-07-03T15:37:47;3.90;;;2.80;;
55815;SDS011;41744;52.404;16.942;2022-07-03T15:43:09;3.10;;;2.55;;
55815;SDS011;41744;52.404;16.942;2022-07-03T15:45:49;3.70;;;2.83;;
55815;SDS011;41744;52.404;16.942;2022-07-03T15:48:26;3.35;;;2.65;;
55815;SDS011;41744;52.404;16.942;2022-07-03T15:50:59;4.45;;;3.67;;
55815;SDS011;41744;52.404;16.942;2022-07-03T15:53:28;4.65;;;3.33;;
55815;SDS011;41744;52.404;16.942;2022-07-03T15:55:58;7.95;;;4.57;;
55815;SDS011;41744;52.404;16.942;2022-07-03T15:58:33;11.75;;;5.68;;
55815;SDS011;41744;52.404;16.942;2022-07-03T16:01:08;14.07;;;7.90;;
55815;SDS011;41744;52.404;16.942;2022-07-03T16:04:06;5.32;;;4.05;;
55815;SDS011;41744;52.404;16.942;2022-07-03T16:06:37;4.38;;;3.05;;
55815;SDS011;41744;52.404;16.942;2022-07-03T16:12:12;7.13;;;3.28;;
55815;SDS011;41744;52.404;16.942;2022-07-03T16:14:55;5.43;;;3.63;;
55815;SDS011;41744;52.404;16.942;2022-07-03T16:17:25;5.47;;;2.90;;
55815;SDS011;41744;52.404;16.942;2022-07-03T16:22:56;3.67;;;3.10;;
55815;SDS011;41744;52.404;16.942;2022-07-03T16:25:25;6.70;;;3.58;;
55815;SDS011;41744;52.404;16.942;2022-07-03T16:27:56;3.92;;;3.13;;
55815;SDS011;41744;52.404;16.942;2022-07-03T16:30:24;7.28;;;3.28;;
55815;SDS011;41744;52.404;16.942;2022-07-03T16:32:53;5.78;;;3.47;;
55815;SDS011;41744;52.404;16.942;2022-07-03T16:35:26;3.60;;;2.92;;
55815;SDS011;41744;52.404;16.942;2022-07-03T16:38:05;3.85;;;2.95;;
55815;SDS011;41744;52.404;16.942;2022-07-03T16:43:38;5.20;;;3.10;;
55815;SDS011;41744;52.404;16.942;2022-07-03T16:46:09;6.82;;;2.83;;
55815;SDS011;41744;52.404;16.942;2022-07-03T16:49:09;3.42;;;2.92;;
55815;SDS011;41744;52.404;16.942;2022-07-03T16:51:33;15.57;;;3.13;;
55815;SDS011;41744;52.404;16.942;2022-07-03T16:54:02;5.72;;;2.63;;
55815;SDS011;41744;52.404;16.942;2022-07-03T16:56:28;3.10;;;2.80;;
55815;SDS011;41744;52.404;16.942;2022-07-03T16:58:58;2.92;;;2.60;;
55815;SDS011;41744;52.404;16.942;2022-07-03T17:04:17;5.32;;;2.80;;
55815;SDS011;41744;52.404;16.942;2022-07-03T17:06:49;3.63;;;3.17;;
55815;SDS011;41744;52.404;16.942;2022-07-03T17:09:24;3.42;;;3.05;;
55815;SDS011;41744;52.404;16.942;2022-07-03T17:11:53;4.78;;;3.00;;
55815;SDS011;41744;52.404;16.942;2022-07-03T17:14:19;4.15;;;3.30;;
55815;SDS011;41744;52.404;16.942;2022-07-03T17:16:46;8.38;;;3.15;;
55815;SDS011;41744;52.404;16.942;2022-07-03T17:22:29;6.00;;;3.17;;
55815;SDS011;41744;52.404;16.942;2022-07-03T17:24:58;6.85;;;3.40;;
55815;SDS011;41744;52.404;16.942;2022-07-03T17:27:25;5.25;;;3.00;;
55815;SDS011;41744;52.404;16.942;2022-07-03T17:32:55;17.98;;;7.25;;
55815;SDS011;41744;52.404;16.942;2022-07-03T17:35:25;53.10;;;13.65;;
55815;SDS011;41744;52.404;16.942;2022-07-03T17:37:51;16.70;;;6.03;;
55815;SDS011;41744;52.404;16.942;2022-07-03T17:43:26;12.77;;;4.97;;
55815;SDS011;41744;52.404;16.942;2022-07-03T17:45:58;12.82;;;4.43;;
55815;SDS011;41744;52.404;16.942;2022-07-03T17:48:25;9.13;;;3.83;;
55815;SDS011;41744;52.404;16.942;2022-07-03T17:51:00;9.57;;;3.28;;
55815;SDS011;41744;52.404;16.942;2022-07-03T17:53:26;8.90;;;3.65;;
55815;SDS011;41744;52.404;16.942;2022-07-03T17:56:06;5.43;;;3.30;;
55815;SDS011;41744;52.404;16.942;2022-07-03T17:58:35;6.63;;;3.60;;
55815;SDS011;41744;52.404;16.942;2022-07-03T18:01:01;5.32;;;3.05;;
55815;SDS011;41744;52.404;16.942;2022-07-03T18:03:27;4.65;;;2.97;;
55815;SDS011;41744;52.404;16.942;2022-07-03T18:05:53;4.00;;;3.10;;